Time;durP1;ratioP1;P1;durP2;ratioP2;P2;SDS_P1;SDS_P2;PMS_P1;PMS_P2;Temp;Humidity;BMP_temperature;BMP_pressure;BME280_temperature;BME280_humidity;BME280_pressure;Samples;Min_cycle;Max_cycle;Signal;HPM_P1;HPM_P2
2024/03/03 00:01:51;;;;;;;42.60;22.23;;;5.60;99.90;;;-148.53;100.00;63986.66;5024368;28;20048;-81
2024/03/03 00:04:17;;;;;;;41.55;21.75;;;5.60;99.90;;;-148.53;100.00;63986.66;5024457;28;20041;-80
2024/03/03 00:06:42;;;;;;;43.42;23.25;;;5.60;99.90;;;-148.53;100.00;63986.66;5014796;28;20041;-80
2024/03/03 00:09:08;;;;;;;42.17;21.85;;;5.70;99.90;;;-148.53;100.00;63986.66;5017880;28;20041;-81
2024/03/03 00:11:34;;;;;;;47.53;23.50;;;5.80;99.90;;;-148.53;100.00;63986.66;5018204;28;20030;-79
2024/03/03 00:14:00;;;;;;;47.05;23.38;;;5.70;99.90;;;-148.53;100.00;63986.66;5022997;28;20132;-80
2024/03/03 00:16:31;;;;;;;44.63;23.13;;;5.60;99.90;;;-148.53;100.00;63986.66;5019576;28;20033;-80
2024/03/03 00:18:58;;;;;;;45.97;21.55;;;5.60;99.90;;;-148.53;100.00;63986.66;5025246;28;20641;-80
2024/03/03 00:21:24;;;;;;;41.25;21.38;;;5.50;99.90;;;-148.53;100.00;63986.66;5014984;28;20045;-80
2024/03/03 00:23:53;;;;;;;38.38;20.83;;;5.40;99.90;;;-148.53;100.00;63986.66;5015778;28;20401;-80
2024/03/03 00:26:19;;;;;;;37.80;19.90;;;5.30;99.90;;;-148.53;100.00;63986.66;5016918;28;20034;-80
2024/03/03 00:28:45;;;;;;;37.42;19.95;;;5.10;99.90;;;-148.53;100.00;63986.66;5018867;28;20563;-80
2024/03/03 00:31:10;;;;;;;38.40;20.17;;;4.90;99.90;;;-148.53;100.00;63986.66;5024031;28;20049;-82
2024/03/03 00:33:36;;;;;;;38.67;19.60;;;4.80;99.90;;;-148.53;100.00;63986.66;5012281;28;20046;-81
2024/03/03 00:36:08;;;;;;;37.70;20.05;;;4.70;99.90;;;-148.53;100.00;63986.66;5012272;28;20088;-82
2024/03/03 00:38:34;;;;;;;43.67;21.55;;;4.60;99.90;;;-148.53;100.00;63986.66;5027243;28;20042;-81
2024/03/03 00:41:00;;;;;;;45.55;22.08;;;4.70;99.90;;;-148.53;100.00;63986.66;5022802;28;20477;-82
2024/03/03 00:43:26;;;;;;;42.67;21.20;;;4.80;99.90;;;-148.53;100.00;63986.66;5026413;28;20102;-79
2024/03/03 00:45:52;;;;;;;42.30;22.73;;;4.80;99.90;;;-148.53;100.00;63986.66;5031207;28;20033;-80
2024/03/03 00:48:18;;;;;;;44.30;23.23;;;4.80;99.90;;;-148.53;100.00;63986.66;5038263;28;20449;-80
2024/03/03 00:50:43;;;;;;;57.10;24.88;;;4.80;99.90;;;-148.53;100.00;63986.66;5027440;28;20041;-80
2024/03/03 00:53:09;;;;;;;47.03;23.15;;;4.80;99.90;;;-148.53;100.00;63986.66;5019676;28;20043;-80
2024/03/03 00:55:35;;;;;;;51.30;24.58;;;4.90;99.90;;;-148.53;100.00;63986.66;5015686;28;20037;-80
2024/03/03 00:58:01;;;;;;;46.88;23.67;;;4.80;99.90;;;-148.53;100.00;63986.66;5015835;28;20481;-81
2024/03/03 01:00:27;;;;;;;51.22;24.38;;;4.80;99.90;;;-148.53;100.00;63986.66;5033099;28;20036;-80
2024/03/03 01:02:53;;;;;;;46.28;23.52;;;4.70;99.90;;;-148.53;100.00;63986.66;5021667;28;20034;-80
2024/03/03 01:05:19;;;;;;;46.60;22.92;;;4.60;99.90;;;-148.53;100.00;63986.66;5023990;28;20049;-80
2024/03/03 01:07:44;;;;;;;50.83;24.75;;;4.60;99.90;;;-148.53;100.00;63986.66;5016774;28;20068;-80
2024/03/03 01:10:10;;;;;;;48.42;22.85;;;4.50;99.90;;;-148.53;100.00;63986.66;5021449;28;20386;-80
2024/03/03 01:12:36;;;;;;;48.28;24.27;;;4.50;99.90;;;-148.53;100.00;63986.66;5035005;28;20058;-81
2024/03/03 01:15:01;;;;;;;47.58;23.98;;;4.40;99.90;;;-148.53;100.00;63986.66;5015456;28;20057;-81
2024/03/03 01:17:27;;;;;;;52.35;24.50;;;4.40;99.90;;;-148.53;100.00;63986.66;5021563;28;20156;-80
2024/03/03 01:19:53;;;;;;;46.17;22.88;;;4.40;99.90;;;-148.53;100.00;63986.66;5034969;28;20539;-80
2024/03/03 01:22:18;;;;;;;51.05;24.20;;;4.40;99.90;;;-148.53;100.00;63986.66;5015881;28;20034;-80
2024/03/03 01:24:44;;;;;;;50.40;24.40;;;4.40;99.90;;;-148.53;100.00;63986.66;5031115;28;20045;-81
2024/03/03 01:27:10;;;;;;;50.17;25.35;;;4.30;99.90;;;-148.53;100.00;63986.66;5017908;28;20030;-81
2024/03/03 01:29:36;;;;;;;55.60;24.23;;;4.30;99.90;;;-148.53;100.00;63986.66;5044089;28;20600;-81
2024/03/03 01:32:04;;;;;;;55.30;25.35;;;4.20;99.90;;;-148.53;100.00;63986.66;5026965;28;20041;-81
2024/03/03 01:34:30;;;;;;;57.72;25.65;;;4.10;99.90;;;-148.53;100.00;63986.66;5027656;28;20039;-81
2024/03/03 01:36:56;;;;;;;59.63;25.63;;;4.10;99.90;;;-148.53;100.00;63986.66;5031436;28;20044;-81
2024/03/03 01:39:22;;;;;;;59.45;26.27;;;4.10;99.90;;;-148.53;100.00;63986.66;5022353;28;20042;-81
2024/03/03 01:41:48;;;;;;;57.15;25.85;;;4.20;99.90;;;-148.53;100.00;63986.66;5028895;28;20408;-81
2024/03/03 01:44:13;;;;;;;57.63;25.90;;;4.10;99.90;;;-148.53;100.00;63986.66;5036914;28;20043;-81
2024/03/03 01:46:40;;;;;;;52.25;25.13;;;4.10;99.90;;;-148.53;100.00;63986.66;5014751;28;20095;-81
2024/03/03 01:49:09;;;;;;;60.33;25.85;;;4.00;99.90;;;-148.53;100.00;63986.66;5025077;28;20038;-81
2024/03/03 01:51:38;;;;;;;54.53;25.77;;;4.00;99.90;;;-148.53;100.00;63986.66;5028708;28;20088;-81
2024/03/03 01:54:05;;;;;;;61.20;27.02;;;4.00;99.90;;;-148.53;100.00;63986.66;5041772;28;20124;-81
2024/03/03 01:56:34;;;;;;;60.95;27.33;;;4.00;99.90;;;-148.53;100.00;63986.66;5021034;28;20034;-81
2024/03/03 01:59:04;;;;;;;59.90;27.13;;;4.00;99.90;;;-148.53;100.00;63986.66;5028930;28;20037;-81
2024/03/03 02:01:34;;;;;;;64.32;29.02;;;4.10;99.90;;;-148.53;100.00;63986.66;5023404;28;20061;-81
2024/03/03 02:03:59;;;;;;;64.65;27.33;;;4.10;99.90;;;-148.53;100.00;63986.66;5040275;28;20034;-81
2024/03/03 02:06:31;;;;;;;64.35;27.42;;;4.10;99.90;;;-148.53;100.00;63986.66;5030324;28;20048;-81
2024/03/03 02:08:58;;;;;;;64.13;28.83;;;4.00;99.90;;;-148.53;100.00;63986.66;5040943;28;20048;-80
2024/03/03 02:11:24;;;;;;;62.13;26.67;;;3.90;99.90;;;-148.53;100.00;63986.66;5039532;28;20033;-80
2024/03/03 02:13:49;;;;;;;63.92;26.55;;;3.80;99.90;;;-148.53;100.00;63986.66;5020716;28;20393;-80
2024/03/03 02:16:16;;;;;;;66.53;28.58;;;3.80;99.90;;;-148.53;100.00;63986.66;5009412;28;20064;-81
2024/03/03 02:18:42;;;;;;;70.45;28.38;;;3.80;99.90;;;-148.53;100.00;63986.66;5030009;28;20579;-80
2024/03/03 02:21:07;;;;;;;77.30;29.27;;;3.80;99.90;;;-148.53;100.00;63986.66;5017891;28;20030;-81
2024/03/03 02:23:33;;;;;;;71.95;31.52;;;3.90;99.90;;;-148.53;100.00;63986.66;5021397;28;20053;-80
2024/03/03 02:25:59;;;;;;;77.18;31.50;;;4.00;99.90;;;-148.53;100.00;63986.66;5014368;28;20036;-81
2024/03/03 02:28:26;;;;;;;73.45;30.05;;;4.00;99.90;;;-148.53;100.00;63986.66;5024472;28;20073;-81
2024/03/03 02:30:52;;;;;;;72.03;30.27;;;3.90;99.90;;;-148.53;100.00;63986.66;5042758;28;20033;-81
2024/03/03 02:33:19;;;;;;;88.10;32.15;;;3.80;99.90;;;-148.53;100.00;63986.66;5035709;28;20037;-81
2024/03/03 02:35:45;;;;;;;77.07;30.27;;;3.80;99.90;;;-148.53;100.00;63986.66;5017159;28;20393;-81
2024/03/03 02:38:11;;;;;;;74.20;29.13;;;3.70;99.90;;;-148.53;100.00;63986.66;5025348;28;20048;-81
2024/03/03 02:40:36;;;;;;;84.97;31.55;;;3.60;99.90;;;-148.53;100.00;63986.66;5029542;28;20049;-81
2024/03/03 02:43:03;;;;;;;87.22;34.30;;;3.70;99.90;;;-148.53;100.00;63986.66;5039093;28;20034;-81
2024/03/03 02:45:29;;;;;;;84.38;32.55;;;3.80;99.90;;;-148.53;100.00;63986.66;5019835;28;20038;-80
2024/03/03 02:47:57;;;;;;;82.32;32.30;;;3.80;99.90;;;-148.53;100.00;63986.66;5013509;28;20053;-80
2024/03/03 02:50:23;;;;;;;78.50;30.85;;;3.70;99.90;;;-148.53;100.00;63986.66;5017381;28;20171;-80
2024/03/03 02:52:49;;;;;;;83.10;32.22;;;3.60;99.90;;;-148.53;100.00;63986.66;5016667;28;20521;-81
2024/03/03 02:55:15;;;;;;;83.15;31.40;;;3.60;99.90;;;-148.53;100.00;63986.66;5024111;28;20063;-81
2024/03/03 02:57:41;;;;;;;88.45;32.55;;;3.60;99.90;;;-148.53;100.00;63986.66;5031099;28;20042;-80
2024/03/03 03:00:11;;;;;;;87.38;33.78;;;3.60;99.90;;;-148.53;100.00;63986.66;5033546;28;20076;-81
2024/03/03 03:02:37;;;;;;;91.47;32.60;;;3.70;99.90;;;-148.53;100.00;63986.66;5034050;28;20077;-79
2024/03/03 03:05:03;;;;;;;85.22;32.97;;;3.70;99.90;;;-148.53;100.00;63986.66;5013574;28;20810;-79
2024/03/03 03:07:29;;;;;;;87.57;32.30;;;3.70;99.90;;;-148.53;100.00;63986.66;5012420;28;20095;-79
2024/03/03 03:09:55;;;;;;;86.03;33.28;;;3.60;99.90;;;-148.53;100.00;63986.66;5013353;28;20022;-79
2024/03/03 03:12:21;;;;;;;83.68;32.97;;;3.60;99.90;;;-148.53;100.00;63986.66;5013109;28;20425;-80
2024/03/03 03:14:46;;;;;;;87.47;32.33;;;3.50;99.90;;;-148.53;100.00;63986.66;5013293;28;20374;-80
2024/03/03 03:17:12;;;;;;;83.28;32.80;;;3.50;99.90;;;-148.53;100.00;63986.66;5014727;28;20647;-80
2024/03/03 03:19:38;;;;;;;91.03;33.22;;;3.50;99.90;;;-148.53;100.00;63986.66;5036392;28;20046;-80
2024/03/03 03:22:04;;;;;;;82.18;32.72;;;3.50;99.90;;;-148.53;100.00;63986.66;5028223;28;20025;-80
2024/03/03 03:24:29;;;;;;;80.53;32.75;;;3.40;99.90;;;-148.53;100.00;63986.66;5017175;28;20101;-82
2024/03/03 03:26:56;;;;;;;89.90;32.65;;;3.40;99.90;;;-148.53;100.00;63986.66;5045377;28;20044;-80
2024/03/03 03:29:22;;;;;;;77.10;30.98;;;3.30;99.90;;;-148.53;100.00;63986.66;5013454;28;20037;-80
2024/03/03 03:31:47;;;;;;;86.85;33.10;;;3.30;99.90;;;-148.53;100.00;63986.66;5029083;28;20481;-80
2024/03/03 03:34:13;;;;;;;88.88;34.90;;;3.30;99.90;;;-148.53;100.00;63986.66;5022792;28;20026;-80
2024/03/03 03:36:39;;;;;;;101.63;35.80;;;3.30;99.90;;;-148.53;100.00;63986.66;5021815;28;20037;-80
2024/03/03 03:39:12;;;;;;;94.70;35.38;;;3.40;99.90;;;-148.53;100.00;63986.66;5018748;28;20072;-80
2024/03/03 03:41:49;;;;;;;96.82;36.00;;;3.40;99.90;;;-148.53;100.00;63986.66;5020535;28;20503;-80
2024/03/03 03:44:17;;;;;;;97.57;36.22;;;3.40;99.90;;;-148.53;100.00;63986.66;5017498;28;20111;-80
2024/03/03 03:46:43;;;;;;;98.97;36.22;;;3.40;99.90;;;-148.53;100.00;63986.66;5021998;28;20025;-80
2024/03/03 03:49:14;;;;;;;108.03;37.67;;;3.40;99.90;;;-148.53;100.00;63986.66;5023226;28;20392;-80
2024/03/03 03:51:40;;;;;;;113.63;38.33;;;3.40;99.90;;;-148.53;100.00;63986.66;5014217;28;20046;-80
2024/03/03 03:54:07;;;;;;;111.00;37.42;;;3.50;99.90;;;-148.53;100.00;63986.66;5027706;28;20153;-81
2024/03/03 03:56:34;;;;;;;105.32;38.72;;;3.50;99.90;;;-148.53;100.00;63986.66;5023429;28;20033;-79
2024/03/03 03:59:00;;;;;;;111.47;37.70;;;3.50;99.90;;;-148.53;100.00;63986.66;5014600;28;20124;-80
2024/03/03 04:01:27;;;;;;;109.80;38.08;;;3.50;99.90;;;-148.53;100.00;63986.66;5018928;28;20474;-80
2024/03/03 04:03:57;;;;;;;109.43;37.28;;;3.60;99.90;;;-148.53;100.00;63986.66;5018151;28;20117;-80
2024/03/03 04:06:25;;;;;;;106.28;37.22;;;3.60;99.90;;;-148.53;100.00;63986.66;5012518;28;20042;-79
2024/03/03 04:08:52;;;;;;;102.90;37.58;;;3.50;99.90;;;-148.53;100.00;63986.66;5020617;28;20458;-80
2024/03/03 04:11:19;;;;;;;100.50;36.25;;;3.50;99.90;;;-148.53;100.00;63986.66;5021230;28;20402;-80
2024/03/03 04:13:50;;;;;;;88.30;32.95;;;3.40;99.90;;;-148.53;100.00;63986.66;5012579;28;20482;-80
2024/03/03 04:16:17;;;;;;;85.88;31.13;;;3.30;99.90;;;-148.53;100.00;63986.66;5016809;28;20490;-80
2024/03/03 04:18:44;;;;;;;79.88;30.50;;;3.10;99.90;;;-148.53;100.00;63986.66;5042186;28;20466;-81
2024/03/03 04:21:10;;;;;;;79.05;28.95;;;2.90;99.90;;;-148.53;100.00;63986.66;5022783;28;20095;-80
2024/03/03 04:23:37;;;;;;;83.03;32.10;;;2.80;99.90;;;-148.53;100.00;63986.66;5019908;28;20124;-80
2024/03/03 04:26:05;;;;;;;86.53;32.58;;;2.80;99.90;;;-148.53;100.00;63986.66;5020644;28;20121;-80
2024/03/03 04:28:31;;;;;;;84.10;32.17;;;2.90;99.90;;;-148.53;100.00;63986.66;5047272;28;20033;-80
2024/03/03 04:30:57;;;;;;;87.78;33.90;;;2.80;99.90;;;-148.53;100.00;63986.66;5016147;28;20037;-80
2024/03/03 04:33:23;;;;;;;87.43;32.92;;;2.80;99.90;;;-148.53;100.00;63986.66;5019905;28;20045;-79
2024/03/03 04:35:49;;;;;;;85.28;31.92;;;2.80;99.90;;;-148.53;100.00;63986.66;5016177;28;20061;-79
2024/03/03 04:38:14;;;;;;;83.82;31.77;;;2.80;99.90;;;-148.53;100.00;63986.66;5020993;28;20042;-80
2024/03/03 04:40:43;;;;;;;84.55;31.73;;;2.80;99.90;;;-148.53;100.00;63986.66;5016168;28;20046;-80
2024/03/03 04:43:10;;;;;;;85.70;32.10;;;2.60;99.90;;;-148.53;100.00;63986.66;5018642;28;20040;-80
2024/03/03 04:45:36;;;;;;;87.45;32.17;;;2.60;99.90;;;-148.53;100.00;63986.66;5023164;28;20040;-80
2024/03/03 04:48:02;;;;;;;94.45;32.88;;;2.50;99.90;;;-148.53;100.00;63986.66;5021875;28;20061;-80
2024/03/03 04:50:28;;;;;;;97.85;34.13;;;2.50;99.90;;;-148.53;100.00;63986.66;5037984;28;20115;-81
2024/03/03 04:52:54;;;;;;;106.57;35.28;;;2.50;99.90;;;-148.53;100.00;63986.66;5026269;28;20037;-80
2024/03/03 04:55:20;;;;;;;103.43;34.55;;;2.60;99.90;;;-148.53;100.00;63986.66;5034599;28;20037;-80
2024/03/03 04:57:45;;;;;;;100.97;35.47;;;2.60;99.90;;;-148.53;100.00;63986.66;5026684;28;20397;-80
2024/03/03 05:00:12;;;;;;;103.90;35.55;;;2.60;99.90;;;-148.53;100.00;63986.66;5028117;28;20044;-80
2024/03/03 05:02:38;;;;;;;88.30;34.00;;;2.60;99.90;;;-148.53;100.00;63986.66;5019231;28;20041;-80
2024/03/03 05:05:06;;;;;;;94.75;33.13;;;2.50;99.90;;;-148.53;100.00;63986.66;5014174;28;20056;-80
2024/03/03 05:07:33;;;;;;;96.13;34.47;;;2.50;99.90;;;-148.53;100.00;63986.66;5021508;28;20129;-80
2024/03/03 05:09:59;;;;;;;100.05;35.33;;;2.50;99.90;;;-148.53;100.00;63986.66;5036051;28;20108;-80
2024/03/03 05:12:25;;;;;;;89.63;33.72;;;2.60;99.90;;;-148.53;100.00;63986.66;5024632;28;20176;-80
2024/03/03 05:14:51;;;;;;;100.10;35.03;;;2.60;99.90;;;-148.53;100.00;63986.66;5031507;28;20037;-80
2024/03/03 05:17:16;;;;;;;101.43;34.40;;;2.60;99.90;;;-148.53;100.00;63986.66;5015148;28;20131;-81
2024/03/03 05:19:43;;;;;;;103.57;36.13;;;2.60;99.90;;;-148.53;100.00;63986.66;5019275;28;20490;-80
2024/03/03 05:22:09;;;;;;;97.72;34.97;;;2.60;99.90;;;-148.53;100.00;63986.66;5025441;28;20573;-80
2024/03/03 05:24:35;;;;;;;115.35;36.72;;;2.60;99.90;;;-148.53;100.00;63986.66;5015171;28;20117;-80
2024/03/03 05:27:00;;;;;;;95.68;35.63;;;2.60;99.90;;;-148.53;100.00;63986.66;5024934;28;20037;-80
2024/03/03 05:29:28;;;;;;;106.40;36.35;;;2.70;99.90;;;-148.53;100.00;63986.66;5021199;28;20037;-80
2024/03/03 05:31:54;;;;;;;110.97;37.13;;;2.80;99.90;;;-148.53;100.00;63986.66;5031768;28;20454;-80
2024/03/03 05:34:19;;;;;;;113.30;37.17;;;2.80;99.90;;;-148.53;100.00;63986.66;5029886;28;20049;-80
2024/03/03 05:36:46;;;;;;;103.55;35.83;;;2.90;99.90;;;-148.53;100.00;63986.66;5019743;28;20034;-80
2024/03/03 05:39:13;;;;;;;102.75;36.13;;;2.90;99.90;;;-148.53;100.00;63986.66;5029548;28;20030;-80
2024/03/03 05:41:39;;;;;;;101.50;34.60;;;2.70;99.90;;;-148.53;100.00;63986.66;5029235;28;20085;-80
2024/03/03 05:44:07;;;;;;;90.80;33.72;;;2.60;99.90;;;-148.53;100.00;63986.66;5020928;28;20064;-79
2024/03/03 05:46:34;;;;;;;91.43;32.80;;;2.50;99.90;;;-148.53;100.00;63986.66;5025077;28;20043;-81
2024/03/03 05:49:00;;;;;;;84.32;32.38;;;2.40;99.90;;;-148.53;100.00;63986.66;5015626;28;20294;-79
2024/03/03 05:51:26;;;;;;;96.05;33.83;;;2.40;99.90;;;-148.53;100.00;63986.66;5024112;28;20200;-79
2024/03/03 05:53:52;;;;;;;86.97;34.05;;;2.40;99.90;;;-148.53;100.00;63986.66;5021130;28;20057;-80
2024/03/03 05:56:18;;;;;;;95.78;35.33;;;2.30;99.90;;;-148.53;100.00;63986.66;5028253;28;20037;-81
2024/03/03 05:58:45;;;;;;;100.20;34.03;;;2.30;99.90;;;-148.53;100.00;63986.66;5019000;28;20052;-80
2024/03/03 06:01:12;;;;;;;104.97;31.48;;;2.20;99.90;;;-148.53;100.00;63986.66;5019712;28;20036;-80
2024/03/03 06:03:39;;;;;;;126.18;34.05;;;2.30;99.90;;;-148.53;100.00;63986.66;5024794;28;20487;-81
2024/03/03 06:06:06;;;;;;;84.55;31.67;;;2.20;99.90;;;-148.53;100.00;63986.66;5018234;28;20191;-80
2024/03/03 06:08:32;;;;;;;70.78;29.10;;;2.20;99.90;;;-148.53;100.00;63986.66;5020529;28;20414;-78
2024/03/03 06:10:58;;;;;;;82.18;31.08;;;2.20;99.90;;;-148.53;100.00;63986.66;5027987;28;20488;-80
2024/03/03 06:13:24;;;;;;;78.28;29.60;;;2.10;99.90;;;-148.53;100.00;63986.66;5018414;28;20149;-79
2024/03/03 06:15:49;;;;;;;237.38;34.10;;;2.20;99.90;;;-148.53;100.00;63986.66;5030842;28;20064;-80
2024/03/03 06:18:15;;;;;;;77.03;29.52;;;2.20;99.90;;;-148.53;100.00;63986.66;5025575;28;20037;-80
2024/03/03 06:20:42;;;;;;;78.25;29.45;;;2.20;99.90;;;-148.53;100.00;63986.66;4996592;28;20052;-81
2024/03/03 06:23:08;;;;;;;83.25;32.60;;;2.30;99.90;;;-148.53;100.00;63986.66;5021257;28;20045;-80
2024/03/03 06:25:34;;;;;;;86.05;32.30;;;2.40;99.90;;;-148.53;100.00;63986.66;5016641;28;20382;-81
2024/03/03 06:27:59;;;;;;;94.45;33.70;;;2.50;99.90;;;-148.53;100.00;63986.66;5017173;28;20116;-79
2024/03/03 06:30:25;;;;;;;102.32;32.53;;;2.60;99.90;;;-148.53;100.00;63986.66;5019369;28;20038;-79
2024/03/03 06:32:52;;;;;;;98.80;34.20;;;2.60;99.90;;;-148.53;100.00;63986.66;5040752;28;20425;-78
2024/03/03 06:35:18;;;;;;;90.60;34.20;;;2.60;99.90;;;-148.53;100.00;63986.66;5013394;28;20041;-78
2024/03/03 06:37:44;;;;;;;102.18;35.55;;;2.70;99.90;;;-148.53;100.00;63986.66;5034147;28;20038;-79
2024/03/03 06:40:10;;;;;;;110.32;38.92;;;2.70;99.90;;;-148.53;100.00;63986.66;5023774;28;20037;-79
2024/03/03 06:42:39;;;;;;;115.15;37.38;;;2.80;99.90;;;-148.53;100.00;63986.66;5019860;28;20034;-79
2024/03/03 06:45:06;;;;;;;104.25;37.03;;;2.90;99.90;;;-148.53;100.00;63986.66;5013313;28;20124;-79
2024/03/03 06:47:32;;;;;;;109.10;38.80;;;3.00;99.90;;;-148.53;100.00;63986.66;5022740;28;20508;-79
2024/03/03 06:50:02;;;;;;;119.10;38.35;;;3.00;99.90;;;-148.53;100.00;63986.66;5026751;28;20030;-79
2024/03/03 06:52:30;;;;;;;117.28;39.35;;;3.10;99.90;;;-148.53;100.00;63986.66;5019115;28;20132;-79
2024/03/03 06:54:59;;;;;;;108.40;37.97;;;3.10;99.90;;;-148.53;100.00;63986.66;5022936;28;20030;-79
2024/03/03 06:57:26;;;;;;;116.05;40.03;;;3.20;99.90;;;-148.53;100.00;63986.66;5017871;28;20038;-79
2024/03/03 06:59:52;;;;;;;121.43;41.42;;;3.30;99.90;;;-148.53;100.00;63986.66;5026102;28;20382;-79
2024/03/03 07:02:19;;;;;;;112.93;39.85;;;3.30;99.90;;;-148.53;100.00;63986.66;5029008;28;20532;-80
2024/03/03 07:04:45;;;;;;;125.03;41.55;;;3.50;99.90;;;-148.53;100.00;63986.66;5017634;28;20521;-80
2024/03/03 07:07:11;;;;;;;130.57;42.47;;;3.60;99.90;;;-148.53;100.00;63986.66;5018483;28;20193;-79
2024/03/03 07:09:37;;;;;;;134.13;42.40;;;3.60;99.90;;;-148.53;100.00;63986.66;5018733;28;20162;-80
2024/03/03 07:12:04;;;;;;;127.63;42.67;;;3.80;99.90;;;-148.53;100.00;63986.66;5014702;28;20379;-79
2024/03/03 07:14:32;;;;;;;125.53;43.70;;;3.90;99.90;;;-148.53;100.00;63986.66;5023183;28;20040;-80
2024/03/03 07:16:58;;;;;;;132.43;44.08;;;4.00;99.90;;;-148.53;100.00;63986.66;5025529;28;20501;-79
2024/03/03 07:19:24;;;;;;;136.93;42.35;;;4.10;99.90;;;-148.53;100.00;63986.66;5019179;28;20041;-79
2024/03/03 07:21:51;;;;;;;144.18;46.42;;;4.30;99.90;;;-148.53;100.00;63986.66;5018317;28;20042;-79
2024/03/03 07:24:17;;;;;;;140.55;45.72;;;4.50;99.90;;;-148.53;100.00;63986.66;5015791;28;20132;-79
2024/03/03 07:26:43;;;;;;;146.27;48.65;;;4.60;99.90;;;-148.53;100.00;63986.66;5038149;28;20042;-80
2024/03/03 07:29:09;;;;;;;136.00;47.17;;;4.80;99.90;;;-148.53;100.00;63986.66;5027170;28;20037;-76
2024/03/03 07:31:36;;;;;;;145.07;47.35;;;5.00;99.90;;;-148.53;100.00;63986.66;5012606;28;20128;-77
2024/03/03 07:34:03;;;;;;;158.45;50.47;;;5.10;99.90;;;-148.53;100.00;63986.66;5012567;28;20544;-77
2024/03/03 07:36:29;;;;;;;150.27;48.10;;;5.30;99.90;;;-148.53;100.00;63986.66;5039737;28;20042;-77
2024/03/03 07:38:54;;;;;;;154.88;48.72;;;5.40;99.90;;;-148.53;100.00;63986.66;5015506;28;20034;-77
2024/03/03 07:41:20;;;;;;;144.25;49.45;;;5.50;99.90;;;-148.53;100.00;63986.66;5018301;28;20087;-77
2024/03/03 07:43:46;;;;;;;146.13;49.22;;;5.60;99.90;;;-148.53;100.00;63986.66;5020653;28;20099;-77
2024/03/03 07:46:12;;;;;;;151.48;50.35;;;5.70;99.90;;;-148.53;100.00;63986.66;5020967;28;20504;-76
2024/03/03 07:48:38;;;;;;;150.70;49.95;;;5.70;99.90;;;-148.53;100.00;63986.66;5011324;28;20129;-79
2024/03/03 07:51:04;;;;;;;153.05;49.78;;;5.90;99.90;;;-148.53;100.00;63986.66;5016782;28;20396;-81
2024/03/03 07:53:31;;;;;;;139.07;49.55;;;6.00;99.90;;;-148.53;100.00;63986.66;5034875;28;20432;-79
2024/03/03 07:55:57;;;;;;;134.52;50.28;;;6.10;99.90;;;-148.53;100.00;63986.66;5033104;28;20037;-80
2024/03/03 07:58:22;;;;;;;134.65;50.50;;;6.20;99.90;;;-148.53;100.00;63986.66;5020413;28;20037;-78
2024/03/03 08:00:48;;;;;;;146.88;51.70;;;6.30;99.90;;;-148.53;100.00;63986.66;5016965;28;20041;-79
2024/03/03 08:03:14;;;;;;;137.95;52.03;;;6.40;99.90;;;-148.53;100.00;63986.66;5016536;28;20061;-77
2024/03/03 08:05:40;;;;;;;128.88;48.85;;;6.50;99.90;;;-148.53;100.00;63986.66;5019824;28;20485;-78
2024/03/03 08:08:06;;;;;;;134.32;49.22;;;6.50;99.90;;;-148.53;100.00;63986.66;5022316;28;20063;-77
2024/03/03 08:10:33;;;;;;;134.93;49.97;;;6.60;99.90;;;-148.53;100.00;63986.66;5020656;28;20040;-79
2024/03/03 08:12:59;;;;;;;129.77;49.25;;;6.70;99.90;;;-148.53;100.00;63986.66;5026755;28;20042;-76
2024/03/03 08:15:25;;;;;;;128.65;50.47;;;6.80;99.90;;;-148.53;100.00;63986.66;5015628;28;20038;-77
2024/03/03 08:17:51;;;;;;;129.88;49.83;;;6.90;99.90;;;-148.53;100.00;63986.66;5026673;28;20493;-77
2024/03/03 08:20:17;;;;;;;128.75;49.00;;;7.10;99.90;;;-148.53;100.00;63986.66;5015992;28;20049;-80
2024/03/03 08:22:43;;;;;;;132.52;50.63;;;7.30;99.90;;;-148.53;100.00;63986.66;5023874;28;20439;-78
2024/03/03 08:25:16;;;;;;;134.00;51.92;;;7.40;99.90;;;-148.53;100.00;63986.66;5025672;28;20115;-78
2024/03/03 08:27:41;;;;;;;120.55;49.70;;;7.60;99.90;;;-148.53;100.00;63986.66;5040140;28;20033;-78
2024/03/03 08:30:11;;;;;;;125.47;50.13;;;7.60;99.90;;;-148.53;100.00;63986.66;5036133;28;20591;-78
2024/03/03 08:32:41;;;;;;;118.47;50.03;;;7.70;99.90;;;-148.53;100.00;63986.66;5027130;28;20100;-78
2024/03/03 08:35:08;;;;;;;113.70;49.70;;;7.70;99.90;;;-148.53;100.00;63986.66;5017432;28;20046;-78
2024/03/03 08:37:34;;;;;;;115.30;47.95;;;7.80;99.90;;;-148.53;100.00;63986.66;5001941;28;20056;-77
2024/03/03 08:40:01;;;;;;;101.20;47.33;;;7.90;99.90;;;-148.53;100.00;63986.66;5024003;28;20107;-77
2024/03/03 08:42:27;;;;;;;98.45;44.92;;;7.90;99.90;;;-148.53;100.00;63986.66;5024835;28;20042;-77
2024/03/03 08:44:53;;;;;;;87.13;41.70;;;8.10;99.90;;;-148.53;100.00;63986.66;5036275;28;20045;-78
2024/03/03 08:47:18;;;;;;;82.65;41.65;;;8.30;99.90;;;-148.53;100.00;63986.66;5026658;28;20057;-78
2024/03/03 08:49:44;;;;;;;84.38;43.00;;;8.50;99.90;;;-148.53;100.00;63986.66;5020955;28;20087;-77
2024/03/03 08:52:10;;;;;;;80.22;40.78;;;8.70;99.90;;;-148.53;100.00;63986.66;5020808;28;20113;-77
2024/03/03 08:54:37;;;;;;;72.78;39.58;;;8.80;99.90;;;-148.53;100.00;63986.66;5028269;28;20244;-78
2024/03/03 08:57:03;;;;;;;68.88;37.13;;;9.10;99.90;;;-148.53;100.00;63986.66;5019220;28;20132;-78
2024/03/03 08:59:29;;;;;;;65.47;36.80;;;9.20;99.90;;;-148.53;100.00;63986.66;5015992;28;20092;-78
2024/03/03 09:01:55;;;;;;;63.90;35.47;;;9.40;99.90;;;-148.53;100.00;63986.66;5031151;28;20383;-78
2024/03/03 09:04:21;;;;;;;61.80;35.10;;;;;;;-148.53;100.00;63986.66;5021022;28;20050;-78
2024/03/03 09:06:47;;;;;;;60.33;33.85;;;;;;;-148.53;100.00;63986.66;5041447;28;20062;-79
2024/03/03 09:09:16;;;;;;;54.53;31.83;;;9.60;99.90;;;-148.53;100.00;63986.66;5028531;28;20075;-79
2024/03/03 09:11:44;;;;;;;50.30;30.88;;;10.10;99.90;;;-148.53;100.00;63986.66;5032842;28;20029;-78
2024/03/03 09:14:11;;;;;;;;;;;;;;;-148.53;100.00;63986.66;5024781;28;20500;-79
2024/03/03 09:16:37;;;;;;;49.20;30.02;;;;;;;-148.53;100.00;63986.66;5025639;28;19921;-78
2024/03/03 09:19:03;;;;;;;46.75;28.75;;;;;;;-148.53;100.00;63986.66;5020756;28;20543;-78
2024/03/03 09:21:30;;;;;;;50.03;29.45;;;;;;;-148.53;100.00;63986.66;5024291;28;20044;-78
2024/03/03 09:23:56;;;;;;;48.58;29.13;;;;;;;-148.53;100.00;63986.66;5030155;28;20187;-79
2024/03/03 09:26:22;;;;;;;46.47;28.17;;;;;;;-148.53;100.00;63986.66;5031877;28;20076;-78
2024/03/03 09:28:48;;;;;;;47.92;28.05;;;;;;;-148.53;100.00;63986.66;5026070;28;20025;-78
2024/03/03 09:31:15;;;;;;;46.10;28.17;;;;;;;-148.53;100.00;63986.66;5020318;28;20026;-78
2024/03/03 09:33:45;;;;;;;48.53;28.95;;;;;;;-148.53;100.00;63986.66;5026395;28;20076;-79
2024/03/03 09:36:10;;;;;;;46.83;27.92;;;10.30;99.90;;;-148.53;100.00;63986.66;5022936;28;20065;-78
2024/03/03 09:38:36;;;;;;;49.03;27.50;;;11.90;99.90;;;-148.53;100.00;63986.66;5021101;28;20042;-78
2024/03/03 09:41:02;;;;;;;45.05;27.58;;;11.90;99.90;;;-148.53;100.00;63986.66;5018736;28;20040;-77
2024/03/03 09:43:36;;;;;;;47.67;28.38;;;12.30;99.90;;;-148.53;100.00;63986.66;5023186;28;20042;-78
2024/03/03 09:46:02;;;;;;;46.58;27.85;;;12.30;99.90;;;-148.53;100.00;63986.66;5018443;28;20120;-79
2024/03/03 09:48:28;;;;;;;42.92;26.73;;;12.60;99.90;;;-148.53;100.00;63986.66;5031199;28;20040;-78
2024/03/03 09:50:57;;;;;;;42.58;27.35;;;12.70;99.90;;;-148.53;100.00;63986.66;5034332;28;20143;-78
2024/03/03 09:53:23;;;;;;;47.53;28.92;;;;;;;-148.53;100.00;63986.66;5025386;28;20493;-78